createdAt,value
2022-11-05T00:00:38.428Z,99143.34
2022-11-05T00:03:24.562Z,99139.88
2022-11-05T00:06:11.893Z,99136.72
2022-11-05T00:08:59.975Z,99143.41
2022-11-05T00:11:46.091Z,99150.16
2022-11-05T00:14:32.539Z,99158.94
2022-11-05T00:16:59.745Z,99155.75
2022-11-05T00:19:27.071Z,99149.50
2022-11-05T00:22:20.235Z,99152.19
2022-11-05T00:25:05.787Z,99156.97
2022-11-05T00:27:34.143Z,99156.66
2022-11-05T00:30:05.952Z,99163.63
2022-11-05T00:32:33.772Z,99164.66
2022-11-05T00:35:00.963Z,99164.88
2022-11-05T00:37:28.731Z,99163.41
2022-11-05T00:39:55.888Z,99156.06
2022-11-05T00:42:41.833Z,99164.09
2022-11-05T00:45:09.732Z,99153.22
2022-11-05T00:47:57.121Z,99158.75
2022-11-05T00:50:24.858Z,99160.06
2022-11-05T00:52:55.888Z,99166.25
2022-11-05T00:55:37.299Z,99172.72
2022-11-05T00:58:09.928Z,99172.22
2022-11-05T01:00:41.586Z,99175.75
2022-11-05T01:03:17.787Z,99179.13
2022-11-05T01:05:53.296Z,99187.00
2022-11-05T01:08:23.924Z,99184.25
2022-11-05T01:10:56.615Z,99194.28
2022-11-05T01:13:29.028Z,99191.53
2022-11-05T01:15:57.776Z,99184.75
2022-11-05T01:18:25.469Z,99182.44
2022-11-05T01:20:53.085Z,99186.03
2022-11-05T01:23:20.762Z,99193.84
2022-11-05T01:25:48.455Z,99195.56
2022-11-05T01:28:15.667Z,99191.41
2022-11-05T01:30:42.817Z,99187.56
2022-11-05T01:33:10.353Z,99180.88
2022-11-05T01:35:39.774Z,99183.44
2022-11-05T01:38:06.893Z,99182.66
2022-11-05T01:40:34.143Z,99180.47
2022-11-05T01:43:01.340Z,99192.34
2022-11-05T01:45:29.200Z,99186.03
2022-11-05T01:48:17.342Z,99192.09
2022-11-05T01:51:05.309Z,99193.06
2022-11-05T01:54:08.296Z,99197.81
2022-11-05T01:56:52.388Z,99192.94
2022-11-05T01:59:39.971Z,99194.88
2022-11-05T02:02:08.809Z,99200.91
2022-11-05T02:04:59.940Z,99204.78
2022-11-05T02:07:29.466Z,99201.22
2022-11-05T02:10:13.875Z,99207.06
2022-11-05T02:12:47.743Z,99202.00
2022-11-05T02:15:25.212Z,99211.47
2022-11-05T02:18:28.147Z,99213.06
2022-11-05T02:21:27.603Z,99210.06
2022-11-05T02:24:52.450Z,99214.63
2022-11-05T02:28:09.866Z,99207.56
2022-11-05T02:31:08.395Z,99207.47
2022-11-05T02:34:08.574Z,99191.88
2022-11-05T02:37:33.055Z,99182.63
2022-11-05T02:40:16.779Z,99182.47
2022-11-05T02:43:26.536Z,99189.34
2022-11-05T02:46:32.816Z,99211.03
2022-11-05T02:49:39.920Z,99215.69
2022-11-05T02:52:16.883Z,99206.41
2022-11-05T02:55:38.287Z,99207.88
2022-11-05T02:58:06.139Z,99225.66
2022-11-05T03:00:49.648Z,99224.31
2022-11-05T03:03:49.692Z,99232.25
2022-11-05T03:07:00.775Z,99230.13
2022-11-05T03:10:24.594Z,99224.94
2022-11-05T03:13:31.452Z,99224.56
2022-11-05T03:16:20.482Z,99229.38
2022-11-05T03:19:18.152Z,99239.94
2022-11-05T03:21:53.796Z,99249.09
2022-11-05T03:24:34.684Z,99248.84
2022-11-05T03:27:20.483Z,99242.22
2022-11-05T03:29:54.907Z,99245.88
2022-11-05T03:32:23.921Z,99252.78
2022-11-05T03:35:02.471Z,99249.75
2022-11-05T03:37:36.404Z,99253.00
2022-11-05T03:40:09.487Z,99250.50
2022-11-05T03:42:43.580Z,99251.13
2022-11-05T03:45:20.547Z,99260.25
2022-11-05T03:47:51.236Z,99267.16
2022-11-05T03:50:41.502Z,99269.38
2022-11-05T03:53:30.506Z,99282.91
2022-11-05T03:56:45.065Z,99279.25
2022-11-05T03:59:13.384Z,99291.84
2022-11-05T04:01:42.749Z,99293.38
2022-11-05T04:04:10.255Z,99298.47
2022-11-05T04:06:56.051Z,99310.22
2022-11-05T04:09:42.036Z,99309.38
2022-11-05T04:12:31.135Z,99321.00
2022-11-05T04:14:58.413Z,99322.38
2022-11-05T04:17:25.563Z,99320.22
2022-11-05T04:20:31.053Z,99326.16
2022-11-05T04:23:23.497Z,99334.53
2022-11-05T04:25:50.980Z,99339.91
2022-11-05T04:28:18.386Z,99337.94
2022-11-05T04:30:46.571Z,99345.63
2022-11-05T04:33:17.543Z,99353.69
2022-11-05T04:35:48.590Z,99348.72
2022-11-05T04:38:19.867Z,99366.56
2022-11-05T04:40:48.123Z,99369.44
2022-11-05T04:43:19.545Z,99374.06
2022-11-05T04:45:47.656Z,99377.50
2022-11-05T04:48:14.889Z,99385.13
2022-11-05T04:50:42.120Z,99384.75
2022-11-05T04:53:09.496Z,99386.03
2022-11-05T04:55:36.953Z,99388.06
2022-11-05T04:58:04.562Z,99383.75
2022-11-05T05:00:31.778Z,99381.59
2022-11-05T05:02:58.932Z,99383.94
2022-11-05T05:05:26.190Z,99387.88
2022-11-05T05:07:53.307Z,99392.91
2022-11-05T05:10:20.578Z,99397.53
2022-11-05T05:12:48.424Z,99393.69
2022-11-05T05:15:15.899Z,99398.44
2022-11-05T05:17:43.155Z,99396.97
2022-11-05T05:20:29.007Z,99395.34
2022-11-05T05:22:56.361Z,99407.94
2022-11-05T05:25:23.890Z,99413.53
2022-11-05T05:27:51.229Z,99420.81
2022-11-05T05:30:18.699Z,99427.19
2022-11-05T05:32:46.416Z,99424.19
2022-11-05T05:35:13.622Z,99429.31
2022-11-05T05:37:40.851Z,99427.91
2022-11-05T05:40:09.933Z,99426.31
2022-11-05T05:42:42.709Z,99430.69
2022-11-05T05:45:12.322Z,99435.25
2022-11-05T05:47:39.710Z,99445.75
2022-11-05T05:50:07.140Z,99439.41
2022-11-05T05:52:34.382Z,99444.19
2022-11-05T05:55:01.594Z,99450.03
2022-11-05T05:57:28.743Z,99462.28
2022-11-05T05:59:55.852Z,99457.63
2022-11-05T06:02:23.288Z,99463.16
2022-11-05T06:04:50.502Z,99465.16
2022-11-05T06:07:17.647Z,99467.66
2022-11-05T06:09:44.802Z,99474.75
2022-11-05T06:12:12.460Z,99471.53
2022-11-05T06:14:39.730Z,99474.44
2022-11-05T06:17:09.982Z,99479.34
2022-11-05T06:19:37.082Z,99475.53
2022-11-05T06:22:04.274Z,99492.88
2022-11-05T06:24:31.396Z,99489.09
2022-11-05T06:26:58.563Z,99489.91
2022-11-05T06:29:25.798Z,99493.56
2022-11-05T06:31:52.949Z,99502.06
2022-11-05T06:34:20.082Z,99509.84
2022-11-05T06:36:47.319Z,99517.16
2022-11-05T06:39:14.502Z,99517.16
2022-11-05T06:42:17.225Z,99511.16
2022-11-05T06:44:28.864Z,99513.31
2022-11-05T06:46:56.043Z,99505.91
2022-11-05T06:49:24.683Z,99511.88
2022-11-05T06:51:52.792Z,99511.06
2022-11-05T06:54:19.972Z,99510.19
2022-11-05T06:56:47.198Z,99503.53
2022-11-05T06:59:14.771Z,99510.22
2022-11-05T07:01:42.206Z,99507.97
2022-11-05T07:04:12.471Z,99506.13
2022-11-05T07:06:39.744Z,99512.59
2022-11-05T07:09:07.034Z,99521.97
2022-11-05T07:11:34.254Z,99517.31
2022-11-05T07:14:01.478Z,99518.03
2022-11-05T07:16:28.708Z,99517.03
2022-11-05T07:18:56.023Z,99526.16
2022-11-05T07:21:23.206Z,99531.00
2022-11-05T07:23:50.583Z,99526.56
2022-11-05T07:26:17.900Z,99517.94
2022-11-05T07:28:45.369Z,99519.69
2022-11-05T07:31:12.541Z,99526.44
2022-11-05T07:33:39.770Z,99525.16
2022-11-05T07:36:07.607Z,99526.56
2022-11-05T07:38:34.799Z,99530.00
2022-11-05T07:41:02.061Z,99529.81
2022-11-05T07:43:29.336Z,99530.53
2022-11-05T07:45:56.658Z,99531.59
2022-11-05T07:48:23.932Z,99541.72
2022-11-05T07:50:53.122Z,99540.09
2022-11-05T07:53:21.143Z,99545.34
2022-11-05T07:55:48.421Z,99553.78
2022-11-05T07:58:15.607Z,99552.06
2022-11-05T08:00:43.030Z,99558.47
2022-11-05T08:03:18.623Z,99560.50
2022-11-05T08:05:48.154Z,99559.16
2022-11-05T08:08:18.902Z,99570.03
2022-11-05T08:10:46.788Z,99573.38
2022-11-05T08:13:15.530Z,99577.16
2022-11-05T08:15:43.492Z,99569.63
2022-11-05T08:18:22.110Z,99572.38
2022-11-05T08:20:49.405Z,99575.91
2022-11-05T08:23:16.583Z,99584.09
2022-11-05T08:25:43.801Z,99576.38
2022-11-05T08:28:13.005Z,99580.00
2022-11-05T08:30:40.756Z,99579.41
2022-11-05T08:33:12.554Z,99576.09
2022-11-05T08:35:41.005Z,99577.50
2022-11-05T08:38:13.813Z,99575.28
2022-11-05T08:40:42.957Z,99583.66
2022-11-05T08:43:13.943Z,99583.66
2022-11-05T08:45:42.381Z,99585.78
2022-11-05T08:48:17.133Z,99590.19
2022-11-05T08:50:47.631Z,99584.56
2022-11-05T08:53:15.704Z,99585.75
2022-11-05T08:55:44.235Z,99583.75
2022-11-05T08:58:16.826Z,99587.72
2022-11-05T09:00:48.244Z,99590.94
2022-11-05T09:03:16.242Z,99590.94
2022-11-05T09:05:43.969Z,99582.59
2022-11-05T09:08:16.583Z,99582.06
2022-11-05T09:10:46.154Z,99584.13
2022-11-05T09:13:18.969Z,99583.16
2022-11-05T09:15:50.946Z,99591.59
2022-11-05T09:18:19.947Z,99592.25
2022-11-05T09:20:47.674Z,99597.25
2022-11-05T09:23:16.200Z,99593.84
2022-11-05T09:25:44.664Z,99595.38
2022-11-05T09:28:20.252Z,99592.75
2022-11-05T09:30:50.952Z,99591.75
2022-11-05T09:33:23.089Z,99593.50
2022-11-05T09:35:51.832Z,99597.22
2022-11-05T09:38:19.776Z,99597.75
2022-11-05T09:41:12.644Z,99613.13
2022-11-05T09:43:58.538Z,99605.25
2022-11-05T09:46:39.752Z,99609.75
2022-11-05T09:49:22.880Z,99608.78
2022-11-05T09:51:52.018Z,99615.34
2022-11-05T09:54:24.690Z,99613.53
2022-11-05T09:56:54.009Z,99613.53
2022-11-05T09:59:42.011Z,99618.19
2022-11-05T10:02:34.762Z,99618.94
2022-11-05T10:05:10.369Z,99624.53
2022-11-05T10:07:50.869Z,99619.91
2022-11-05T10:10:43.381Z,99619.81
2022-11-05T10:13:48.033Z,99624.78
2022-11-05T10:16:41.997Z,99625.16
2022-11-05T10:19:31.128Z,99633.19
2022-11-05T10:22:13.136Z,99634.66
2022-11-05T10:24:47.116Z,99640.19
2022-11-05T10:27:29.458Z,99638.72
2022-11-05T10:29:57.016Z,99634.81
2022-11-05T10:32:41.422Z,99636.31
2022-11-05T10:35:18.535Z,99643.81
2022-11-05T10:37:46.729Z,99624.03
2022-11-05T10:40:36.060Z,99637.16
2022-11-05T10:43:21.596Z,99634.63
2022-11-05T10:46:32.457Z,99632.38
2022-11-05T10:49:58.851Z,99633.28
2022-11-05T10:52:42.256Z,99631.28
2022-11-05T10:55:27.670Z,99634.13
2022-11-05T10:57:57.138Z,99630.69
2022-11-05T11:00:28.397Z,99625.19
2022-11-05T11:03:04.030Z,99628.19
2022-11-05T11:05:37.204Z,99624.06
2022-11-05T11:08:13.294Z,99631.00
2022-11-05T11:10:57.196Z,99632.38
2022-11-05T11:13:59.069Z,99626.34
2022-11-05T11:16:38.207Z,99632.69
2022-11-05T11:19:21.397Z,99623.81
2022-11-05T11:22:15.864Z,99614.34
2022-11-05T11:24:48.163Z,99618.19
2022-11-05T11:27:29.486Z,99621.38
2022-11-05T11:30:03.717Z,99618.47
2022-11-05T11:32:40.075Z,99623.16
2022-11-05T11:35:23.933Z,99611.34
2022-11-05T11:37:57.346Z,99618.06
2022-11-05T11:40:36.129Z,99621.59
2022-11-05T11:43:28.088Z,99615.09
2022-11-05T11:46:03.719Z,99622.00
2022-11-05T11:48:36.460Z,99604.63
2022-11-05T11:51:49.455Z,99605.63
2022-11-05T11:54:28.605Z,99610.22
2022-11-05T11:56:56.401Z,99608.25
2022-11-05T12:00:01.781Z,99609.84
2022-11-05T12:02:51.835Z,99607.09
2022-11-05T12:06:51.244Z,99603.63
2022-11-05T12:09:58.229Z,99601.06
2022-11-05T12:13:16.501Z,99595.09
2022-11-05T12:16:11.502Z,99591.50
2022-11-05T12:19:34.243Z,99596.38
2022-11-05T12:22:38.444Z,99590.53
2022-11-05T12:25:42.444Z,99585.88
2022-11-05T12:29:04.506Z,99587.28
2022-11-05T12:32:35.029Z,99583.03
2022-11-05T12:35:44.178Z,99581.84
2022-11-05T12:39:01.626Z,99581.53
2022-11-05T12:42:00.352Z,99579.28
2022-11-05T12:45:16.409Z,99582.56
2022-11-05T12:48:23.240Z,99585.00
2022-11-05T12:51:17.443Z,99578.19
2022-11-05T12:54:04.075Z,99576.31
2022-11-05T12:56:54.240Z,99572.88
2022-11-05T13:00:20.337Z,99568.59
2022-11-05T13:03:17.256Z,99567.81
2022-11-05T13:06:06.728Z,99570.34
2022-11-05T13:08:47.960Z,99573.94
2022-11-05T13:11:37.739Z,99581.03
2022-11-05T13:14:25.749Z,99570.38
2022-11-05T13:17:12.664Z,99571.44
2022-11-05T13:20:01.555Z,99568.84
2022-11-05T13:22:50.976Z,99564.63
2022-11-05T13:25:45.231Z,99559.25
2022-11-05T13:28:47.735Z,99563.66
2022-11-05T13:31:23.629Z,99563.84
2022-11-05T13:33:52.996Z,99571.78
2022-11-05T13:37:14.809Z,99569.91
2022-11-05T13:39:57.254Z,99561.16
2022-11-05T13:42:47.454Z,99565.50
2022-11-05T13:46:02.840Z,99562.81
2022-11-05T13:49:06.330Z,99556.91
2022-11-05T13:51:47.706Z,99563.06
2022-11-05T13:55:16.244Z,99563.91
2022-11-05T13:58:14.136Z,99567.44
2022-11-05T14:01:27.527Z,99565.44
2022-11-05T14:03:56.610Z,99567.25
2022-11-05T14:06:36.218Z,99560.25
2022-11-05T14:09:11.278Z,99564.66
2022-11-05T14:11:49.997Z,99560.16
2022-11-05T14:14:29.667Z,99562.38
2022-11-05T14:17:08.913Z,99562.13
2022-11-05T14:20:04.903Z,99567.41
2022-11-05T14:22:31.867Z,99572.03
2022-11-05T14:25:02.063Z,99569.53
2022-11-05T14:27:29.035Z,99566.31
2022-11-05T14:29:57.455Z,99563.41
2022-11-05T14:32:42.913Z,99563.72
2022-11-05T14:35:16.049Z,99556.22
2022-11-05T14:37:56.794Z,99560.81
2022-11-05T14:40:43.920Z,99557.94
2022-11-05T14:43:14.396Z,99557.19
2022-11-05T14:46:08.463Z,99567.69
2022-11-05T14:48:54.243Z,99561.06
2022-11-05T14:51:35.946Z,99564.53
2022-11-05T14:54:18.221Z,99571.91
2022-11-05T14:56:56.470Z,99561.09
2022-11-05T14:59:31.671Z,99574.13
2022-11-05T15:02:05.883Z,99571.50
2022-11-05T15:04:36.258Z,99575.25
2022-11-05T15:07:03.286Z,99576.75
2022-11-05T15:09:56.115Z,99572.06
2022-11-05T15:12:38.126Z,99582.84
2022-11-05T15:15:32.704Z,99579.84
2022-11-05T15:18:30.526Z,99584.84
2022-11-05T15:21:02.264Z,99590.56
2022-11-05T15:23:42.360Z,99591.94
2022-11-05T15:27:12.735Z,99594.06
2022-11-05T15:29:40.778Z,99594.59
2022-11-05T15:32:18.638Z,99597.63
2022-11-05T15:34:56.306Z,99591.19
2022-11-05T15:37:27.751Z,99592.75
2022-11-05T15:39:55.794Z,99604.56
2022-11-05T15:42:27.063Z,99619.91
2022-11-05T15:44:57.925Z,99610.81
2022-11-05T15:47:30.154Z,99614.56
2022-11-05T15:50:08.647Z,99611.28
2022-11-05T15:52:49.348Z,99604.66
2022-11-05T15:55:25.707Z,99608.47
2022-11-05T15:58:04.657Z,99614.13
2022-11-05T16:00:36.401Z,99621.72
2022-11-05T16:03:32.667Z,99618.69
2022-11-05T16:06:01.777Z,99624.28
2022-11-05T16:08:30.611Z,99627.19
2022-11-05T16:11:01.747Z,99628.34
2022-11-05T16:13:41.895Z,99627.38
2022-11-05T16:16:15.192Z,99633.16
2022-11-05T16:18:44.887Z,99635.38
2022-11-05T16:21:19.099Z,99632.09
2022-11-05T16:23:49.079Z,99638.91
2022-11-05T16:27:01.737Z,99642.16
2022-11-05T16:29:57.312Z,99650.03
2022-11-05T16:32:31.322Z,99661.16
2022-11-05T16:35:06.121Z,99658.09
2022-11-05T16:37:40.943Z,99662.38
2022-11-05T16:40:20.426Z,99672.81
2022-11-05T16:42:51.136Z,99668.63
2022-11-05T16:45:24.101Z,99676.75
2022-11-05T16:47:51.463Z,99675.91
2022-11-05T16:50:18.547Z,99686.88
2022-11-05T16:52:47.127Z,99685.78
2022-11-05T16:55:16.152Z,99694.00
2022-11-05T16:57:49.542Z,99700.09
2022-11-05T17:00:20.393Z,99694.59
2022-11-05T17:02:48.299Z,99705.06
2022-11-05T17:05:25.888Z,99712.50
2022-11-05T17:07:54.355Z,99719.06
2022-11-05T17:10:24.211Z,99713.56
2022-11-05T17:12:52.697Z,99711.25
2022-11-05T17:15:31.128Z,99719.06
2022-11-05T17:17:59.344Z,99724.03
2022-11-05T17:20:54.964Z,99723.38
2022-11-05T17:23:26.691Z,99732.75
2022-11-05T17:26:02.120Z,99730.25
2022-11-05T17:28:30.376Z,99730.13
2022-11-05T17:31:00.951Z,99739.16
2022-11-05T17:33:29.027Z,99735.38
2022-11-05T17:35:56.893Z,99743.28
2022-11-05T17:38:26.838Z,99748.88
2022-11-05T17:40:54.226Z,99749.97
2022-11-05T17:43:21.614Z,99751.59
2022-11-05T17:45:52.303Z,99757.78
2022-11-05T17:48:21.336Z,99755.06
2022-11-05T17:50:50.928Z,99759.75
2022-11-05T17:53:19.841Z,99761.25
2022-11-05T17:55:48.075Z,99755.19
2022-11-05T17:58:15.625Z,99760.63
2022-11-05T18:00:45.071Z,99761.84
2022-11-05T18:03:13.457Z,99766.50
2022-11-05T18:05:42.152Z,99760.84
2022-11-05T18:08:10.305Z,99764.44
2022-11-05T18:10:39.865Z,99766.63
2022-11-05T18:13:07.119Z,99768.72
2022-11-05T18:15:36.317Z,99778.59
2022-11-05T18:18:03.930Z,99778.31
2022-11-05T18:20:31.395Z,99795.00
2022-11-05T18:22:58.643Z,99790.16
2022-11-05T18:25:26.353Z,99804.19
2022-11-05T18:27:53.612Z,99811.97
2022-11-05T18:30:21.049Z,99802.19
2022-11-05T18:32:48.329Z,99812.50
2022-11-05T18:35:15.794Z,99814.50
2022-11-05T18:37:43.328Z,99817.19
2022-11-05T18:40:12.006Z,99811.69
2022-11-05T18:42:39.885Z,99814.38
2022-11-05T18:45:09.635Z,99820.28
2022-11-05T18:47:37.047Z,99817.66
2022-11-05T18:50:06.404Z,99824.91
2022-11-05T18:52:33.752Z,99833.38
2022-11-05T18:55:01.081Z,99833.38
2022-11-05T18:57:28.467Z,99832.81
2022-11-05T18:59:55.692Z,99837.84
2022-11-05T19:02:23.143Z,99845.09
2022-11-05T19:05:22.054Z,99837.63
2022-11-05T19:07:39.287Z,99846.84
2022-11-05T19:10:07.855Z,99844.00
2022-11-05T19:12:35.140Z,99841.16
2022-11-05T19:15:03.208Z,99845.94
2022-11-05T19:17:33.797Z,99850.41
2022-11-05T19:20:01.670Z,99856.31
2022-11-05T19:22:29.471Z,99849.78
2022-11-05T19:24:56.705Z,99865.19
2022-11-05T19:27:23.903Z,99867.88
2022-11-05T19:29:51.707Z,99869.16
2022-11-05T19:32:19.177Z,99866.72
2022-11-05T19:34:46.948Z,99869.53
2022-11-05T19:37:14.266Z,99869.59
2022-11-05T19:39:41.783Z,99867.88
2022-11-05T19:42:08.943Z,99870.09
2022-11-05T19:44:36.151Z,99862.09
2022-11-05T19:47:03.406Z,99864.53
2022-11-05T19:49:30.661Z,99869.19
2022-11-05T19:51:57.903Z,99869.19
2022-11-05T19:54:25.086Z,99884.44
2022-11-05T19:56:52.779Z,99878.97
2022-11-05T19:59:20.056Z,99890.94
2022-11-05T20:01:47.427Z,99900.19
2022-11-05T20:04:14.835Z,99905.94
2022-11-05T20:06:42.110Z,99913.59
2022-11-05T20:09:22.716Z,99908.66
2022-11-05T20:11:54.087Z,99914.78
2022-11-05T20:14:21.590Z,99918.06
2022-11-05T20:16:49.683Z,99924.88
2022-11-05T20:19:20.317Z,99925.06
2022-11-05T20:21:49.904Z,99925.78
2022-11-05T20:24:24.701Z,99931.75
2022-11-05T20:26:55.018Z,99922.19
2022-11-05T20:29:27.877Z,99927.41
2022-11-05T20:31:57.917Z,99925.25
2022-11-05T20:34:26.089Z,99928.59
2022-11-05T20:36:53.437Z,99931.22
2022-11-05T20:39:21.232Z,99928.78
2022-11-05T20:41:48.364Z,99936.50
2022-11-05T20:44:15.852Z,99937.13
2022-11-05T20:46:43.061Z,99940.28
2022-11-05T20:49:10.275Z,99945.25
2022-11-05T20:51:37.749Z,99946.69
2022-11-05T20:54:05.325Z,99951.63
2022-11-05T20:56:35.303Z,99953.50
2022-11-05T20:59:04.519Z,99954.44
2022-11-05T21:01:34.183Z,99955.84
2022-11-05T21:04:03.048Z,99954.31
2022-11-05T21:06:32.081Z,99963.84
2022-11-05T21:08:59.638Z,99959.78
2022-11-05T21:11:26.970Z,99959.44
2022-11-05T21:13:54.870Z,99962.66
2022-11-05T21:16:22.661Z,99957.88
2022-11-05T21:18:50.041Z,99953.13
2022-11-05T21:21:20.543Z,99955.53
2022-11-05T21:23:48.574Z,99960.00
2022-11-05T21:26:17.800Z,99963.13
2022-11-05T21:28:45.380Z,99966.22
2022-11-05T21:31:12.698Z,99963.25
2022-11-05T21:33:39.998Z,99976.03
2022-11-05T21:36:11.929Z,99973.63
2022-11-05T21:38:40.911Z,99974.59
2022-11-05T21:41:11.697Z,99976.44
2022-11-05T21:43:41.663Z,99987.22
2022-11-05T21:46:12.475Z,99994.63
2022-11-05T21:48:39.962Z,99994.31
2022-11-05T21:51:26.061Z,99993.19
2022-11-05T21:54:11.842Z,100001.94
2022-11-05T21:56:57.769Z,100015.06
2022-11-05T21:59:44.476Z,100013.06
2022-11-05T22:02:23.998Z,100013.06
2022-11-05T22:04:56.341Z,100019.34
2022-11-05T22:07:31.380Z,100027.97
2022-11-05T22:09:59.105Z,100027.97
2022-11-05T22:12:27.000Z,100024.75
2022-11-05T22:14:54.960Z,100021.47
2022-11-05T22:17:22.181Z,100027.63
2022-11-05T22:19:50.103Z,100026.28
2022-11-05T22:22:17.627Z,100028.50
2022-11-05T22:24:46.195Z,100026.88
2022-11-05T22:27:19.015Z,100029.00
2022-11-05T22:29:46.378Z,100017.31
2022-11-05T22:32:14.090Z,100018.28
2022-11-05T22:34:41.795Z,100020.59
2022-11-05T22:37:12.411Z,100029.16
2022-11-05T22:39:39.651Z,100035.56
2022-11-05T22:42:08.786Z,100038.19
2022-11-05T22:44:36.835Z,100027.91
2022-11-05T22:47:05.461Z,100033.56
2022-11-05T22:49:33.620Z,100026.69
2022-11-05T22:52:00.937Z,100023.56
2022-11-05T22:54:28.255Z,100025.19
2022-11-05T22:56:55.468Z,100018.69
2022-11-05T22:59:23.047Z,100025.78
2022-11-05T23:01:50.342Z,100023.97
2022-11-05T23:04:17.791Z,100028.56
2022-11-05T23:07:03.780Z,100033.78
2022-11-05T23:09:53.268Z,100046.41
2022-11-05T23:12:35.377Z,100040.59
2022-11-05T23:15:06.651Z,100039.88
2022-11-05T23:17:52.607Z,100033.09
2022-11-05T23:20:42.356Z,100034.78
2022-11-05T23:23:32.245Z,100032.78
2022-11-05T23:26:20.724Z,100040.75
2022-11-05T23:28:47.978Z,100045.72
2022-11-05T23:31:33.643Z,100041.94
2022-11-05T23:34:00.820Z,100044.03
2022-11-05T23:36:46.989Z,100050.09
2022-11-05T23:39:14.251Z,100055.72
2022-11-05T23:42:00.400Z,100061.13
2022-11-05T23:44:45.912Z,100067.22
2022-11-05T23:47:32.112Z,100071.94
2022-11-05T23:49:59.199Z,100078.69
2022-11-05T23:52:26.423Z,100074.66
2022-11-05T23:54:53.580Z,100078.78
2022-11-05T23:57:20.722Z,100085.59
2022-11-05T23:59:47.947Z,100085.50
